Algonac, Michigan
Current Conditions -  °F | °C
As of 4:58 AM on Sunday 26 Oct 2014 (Local Time) from KMTC Reporting Station
Clear Clear  
Wind Chill: 44°   Ceiling: Unl
Heat Index: 48°   Visibility: 10mi
Dew Point: 30°   Wind: 8mph
Humidity: 51%   Direction: 270°W
Pressure: 29.82"   Gusts: NA
Location:  42.62°N, 82.53°W
Report Text: KMTC 260858Z AUTO 27007KT 10SM CLR 09/M01 A2982 RMK AO2 SLP102 T00871009 51010
Loading
Personal Weather Stations






























Interactive Weather Map
Tropical Storm Tracking
New forecast layout! Learn more

10-Day Weather Forecast

Advertisements
Track Severe Weather on mobile